Time;durP1;ratioP1;P1;durP2;ratioP2;P2;SDS_P1;SDS_P2;PMS_P1;PMS_P2;Temp;Humidity;BMP_temperature;BMP_pressure;BME280_temperature;BME280_humidity;BME280_pressure;Samples;Min_cycle;Max_cycle;Signal;HPM_P1;HPM_P2
2021/09/26 00:01:22;;;;;;;12.88;7.72;;;18.10;99.90;;;;;;5073226;28;20033;-68
2021/09/26 00:03:48;;;;;;;16.00;8.07;;;18.10;99.90;;;;;;5073362;28;20028;-68
2021/09/26 00:06:14;;;;;;;13.85;7.55;;;18.00;99.90;;;;;;5072745;28;20090;-68
2021/09/26 00:08:40;;;;;;;10.50;6.85;;;18.10;99.90;;;;;;5072124;28;20108;-68
2021/09/26 00:11:06;;;;;;;10.85;7.57;;;18.10;99.90;;;;;;5073113;28;20163;-68
2021/09/26 00:13:38;;;;;;;11.27;7.60;;;18.00;99.90;;;;;;5072970;28;20047;-68
2021/09/26 00:16:06;;;;;;;10.85;6.32;;;18.10;99.90;;;;;;5072721;28;20135;-67
2021/09/26 00:18:32;;;;;;;8.57;6.10;;;18.20;99.90;;;;;;5071937;28;20089;-67
2021/09/26 00:20:58;;;;;;;10.50;5.78;;;18.40;99.90;;;;;;5072913;28;20037;-68
2021/09/26 00:23:25;;;;;;;10.00;5.90;;;18.50;99.90;;;;;;5072760;28;20047;-68
2021/09/26 00:25:53;;;;;;;11.48;6.30;;;18.50;99.90;;;;;;5071842;28;20037;-68
2021/09/26 00:28:20;;;;;;;9.23;6.18;;;18.50;99.90;;;;;;5072607;28;20606;-68
2021/09/26 00:30:47;;;;;;;11.02;6.15;;;18.50;99.90;;;;;;5072707;28;20503;-68
2021/09/26 00:33:13;;;;;;;12.43;6.80;;;18.50;99.90;;;;;;5072618;28;20040;-68
2021/09/26 00:35:39;;;;;;;10.70;6.50;;;18.50;99.90;;;;;;5072444;28;20036;-68
2021/09/26 00:38:05;;;;;;;13.25;7.18;;;18.40;99.90;;;;;;5071213;28;20393;-68
2021/09/26 00:40:31;;;;;;;11.10;6.68;;;18.40;99.90;;;;;;5072805;28;20037;-67
2021/09/26 00:42:57;;;;;;;9.13;6.35;;;18.20;99.90;;;;;;5071455;28;20041;-69
2021/09/26 00:45:23;;;;;;;9.70;6.43;;;18.30;99.90;;;;;;5071203;28;20569;-68
2021/09/26 00:47:49;;;;;;;11.15;6.32;;;18.20;99.90;;;;;;5071230;28;20055;-68
2021/09/26 00:50:16;;;;;;;9.75;6.28;;;18.30;99.90;;;;;;5072382;28;20116;-67
2021/09/26 00:52:46;;;;;;;11.15;5.97;;;18.30;99.90;;;;;;5073941;28;20499;-68
2021/09/26 00:55:13;;;;;;;11.00;7.03;;;18.10;99.90;;;;;;5070997;28;20028;-68
2021/09/26 00:57:42;;;;;;;11.55;7.13;;;17.80;99.90;;;;;;5075100;28;20031;-68
2021/09/26 01:00:12;;;;;;;16.75;8.25;;;17.70;99.90;;;;;;5072095;28;20090;-68
2021/09/26 01:02:38;;;;;;;17.23;8.18;;;17.70;99.90;;;;;;5072287;28;20405;-68
2021/09/26 01:05:07;;;;;;;12.85;8.77;;;17.60;99.90;;;;;;5071980;28;20043;-67
2021/09/26 01:07:56;;;;;;;14.63;8.68;;;17.60;99.90;;;;;;5071097;28;20082;-68
2021/09/26 01:10:46;;;;;;;12.63;9.02;;;17.60;99.90;;;;;;5071303;28;20083;-68
2021/09/26 01:13:58;;;;;;;14.63;9.05;;;17.60;99.90;;;;;;5071891;28;20035;-68
2021/09/26 01:16:37;;;;;;;13.50;9.38;;;17.60;99.90;;;;;;5079162;28;20080;-68
2021/09/26 01:19:48;;;;;;;14.60;9.13;;;17.60;99.90;;;;;;5072236;28;20072;-68
2021/09/26 01:22:25;;;;;;;16.83;8.68;;;17.50;99.90;;;;;;5071865;28;20702;-67
2021/09/26 01:25:12;;;;;;;12.25;8.68;;;17.30;99.90;;;;;;5070956;28;20401;-68
2021/09/26 01:28:15;;;;;;;16.95;9.13;;;17.20;99.90;;;;;;5070644;28;20025;-68
2021/09/26 01:30:51;;;;;;;20.55;11.80;;;17.20;99.90;;;;;;5071998;28;20109;-68
2021/09/26 01:33:33;;;;;;;15.90;10.05;;;17.20;99.90;;;;;;5070584;28;20063;-67
2021/09/26 01:36:25;;;;;;;15.30;10.52;;;17.40;99.90;;;;;;5071917;28;20033;-67
2021/09/26 01:39:22;;;;;;;18.13;9.80;;;17.30;99.90;;;;;;5071530;28;20098;-68
2021/09/26 01:42:21;;;;;;;16.92;11.13;;;17.50;99.90;;;;;;5072199;28;20052;-68
2021/09/26 01:45:21;;;;;;;18.67;11.98;;;17.40;99.90;;;;;;5069037;28;20447;-68
2021/09/26 01:48:15;;;;;;;21.00;14.05;;;17.40;99.90;;;;;;5071032;28;20036;-67
2021/09/26 01:50:42;;;;;;;17.92;13.18;;;17.60;99.90;;;;;;5071850;28;20029;-67
2021/09/26 01:53:11;;;;;;;24.95;14.23;;;17.60;99.90;;;;;;5070558;28;20033;-68
2021/09/26 01:55:39;;;;;;;19.08;13.25;;;17.60;99.90;;;;;;5070493;28;20478;-68
2021/09/26 01:58:05;;;;;;;21.55;14.15;;;17.60;99.90;;;;;;5070379;28;20044;-68
2021/09/26 02:00:31;;;;;;;18.55;13.57;;;17.50;99.90;;;;;;5070479;28;20036;-68
2021/09/26 02:02:58;;;;;;;17.30;11.70;;;17.40;99.90;;;;;;5070379;28;20036;-68
2021/09/26 02:05:25;;;;;;;17.20;12.02;;;17.40;99.90;;;;;;5070196;28;20029;-67
2021/09/26 02:07:52;;;;;;;16.63;11.60;;;17.50;99.90;;;;;;5055044;28;20028;-68
2021/09/26 02:10:23;;;;;;;16.90;11.77;;;17.50;99.90;;;;;;5074341;28;20031;-68
2021/09/26 02:12:49;;;;;;;;;;;17.50;99.90;;;;;;5074516;28;20032;-68
2021/09/26 02:15:19;;;;;;;18.10;11.13;;;17.60;99.90;;;;;;5075171;28;19966;-68
2021/09/26 02:17:47;;;;;;;17.80;12.15;;;17.60;99.90;;;;;;5074352;28;20062;-68
2021/09/26 02:20:17;;;;;;;19.15;12.15;;;17.40;99.90;;;;;;5074961;28;20481;-68
2021/09/26 02:22:44;;;;;;;14.43;10.57;;;17.30;99.90;;;;;;5073992;28;20029;-68
2021/09/26 02:25:12;;;;;;;15.10;11.13;;;17.10;99.90;;;;;;5073684;28;20470;-68
2021/09/26 02:27:39;;;;;;;17.75;11.00;;;17.10;99.90;;;;;;5074046;28;20473;-68
2021/09/26 02:30:07;;;;;;;16.98;10.30;;;17.00;99.90;;;;;;5075033;28;20076;-68
2021/09/26 02:32:33;;;;;;;14.68;9.40;;;16.90;99.90;;;;;;5075323;28;20036;-68
2021/09/26 02:34:59;;;;;;;14.43;9.32;;;16.90;99.90;;;;;;5073742;28;20610;-68
2021/09/26 02:37:26;;;;;;;12.73;9.05;;;16.80;99.90;;;;;;5074671;28;20443;-68
2021/09/26 02:39:52;;;;;;;14.35;8.95;;;16.90;99.90;;;;;;5073878;28;20058;-68
2021/09/26 02:42:29;;;;;;;13.57;8.68;;;17.00;99.90;;;;;;5073611;28;20056;-68
2021/09/26 02:45:16;;;;;;;13.18;8.63;;;17.00;99.90;;;;;;5073361;28;20111;-67
2021/09/26 02:48:12;;;;;;;14.15;9.05;;;16.90;99.90;;;;;;5074930;28;20036;-67
2021/09/26 02:50:40;;;;;;;14.73;9.02;;;16.90;99.90;;;;;;5077374;28;20485;-67
2021/09/26 02:53:08;;;;;;;12.23;8.38;;;16.90;99.90;;;;;;5074723;28;20041;-68
2021/09/26 02:55:35;;;;;;;11.43;8.55;;;16.80;99.90;;;;;;5073300;28;20115;-67
2021/09/26 02:58:02;;;;;;;14.10;8.65;;;16.60;99.90;;;;;;5077020;28;20040;-68
2021/09/26 03:00:40;;;;;;;12.07;7.75;;;16.60;99.90;;;;;;5074125;28;20447;-68
2021/09/26 03:03:27;;;;;;;13.95;8.02;;;16.70;99.90;;;;;;5074657;28;20062;-67
2021/09/26 03:05:55;;;;;;;11.88;7.15;;;16.80;99.90;;;;;;5074178;28;20082;-68
2021/09/26 03:08:22;;;;;;;13.95;7.75;;;16.80;99.90;;;;;;5074581;28;20031;-68
2021/09/26 03:10:59;;;;;;;12.25;7.85;;;16.70;99.90;;;;;;5074552;28;20029;-68
2021/09/26 03:13:26;;;;;;;12.27;7.40;;;16.80;99.90;;;;;;5074264;28;20036;-68
2021/09/26 03:15:52;;;;;;;9.98;6.90;;;16.70;99.90;;;;;;5074302;28;20394;-68
2021/09/26 03:18:18;;;;;;;11.07;7.70;;;16.80;99.90;;;;;;5073665;28;20436;-68
2021/09/26 03:20:44;;;;;;;17.33;7.38;;;16.70;99.90;;;;;;5074070;28;20036;-68
2021/09/26 03:23:10;;;;;;;10.80;7.28;;;16.60;99.90;;;;;;5074068;28;20035;-68
2021/09/26 03:25:36;;;;;;;12.00;7.63;;;16.50;99.90;;;;;;5074023;28;20032;-68
2021/09/26 03:28:03;;;;;;;10.52;6.90;;;16.60;99.90;;;;;;5074244;28;20063;-68
2021/09/26 03:30:28;;;;;;;12.05;7.43;;;16.50;99.90;;;;;;5072679;28;20033;-68
2021/09/26 03:32:54;;;;;;;12.80;7.85;;;16.60;99.90;;;;;;5073813;28;20063;-67
2021/09/26 03:35:20;;;;;;;12.80;7.10;;;16.50;99.90;;;;;;5073625;28;20508;-67
2021/09/26 03:37:46;;;;;;;13.23;7.82;;;16.50;99.90;;;;;;5072204;28;20037;-68
2021/09/26 03:40:14;;;;;;;11.55;7.30;;;16.50;99.90;;;;;;5073748;28;20036;-68
2021/09/26 03:42:41;;;;;;;12.27;7.40;;;16.40;99.90;;;;;;5073663;28;20037;-69
2021/09/26 03:45:09;;;;;;;9.80;7.05;;;16.50;99.90;;;;;;5073513;28;20040;-69
2021/09/26 03:47:35;;;;;;;15.07;7.72;;;16.50;99.90;;;;;;5072478;28;20094;-69
2021/09/26 03:50:03;;;;;;;10.48;7.55;;;16.40;99.90;;;;;;5089172;28;20024;-68
2021/09/26 03:52:29;;;;;;;10.57;7.10;;;16.40;99.90;;;;;;5073176;28;21009;-69
2021/09/26 03:54:54;;;;;;;12.90;8.23;;;16.50;99.90;;;;;;5073545;28;20036;-69
2021/09/26 03:57:21;;;;;;;16.02;8.00;;;16.40;99.90;;;;;;5073228;28;20028;-69
2021/09/26 03:59:47;;;;;;;14.32;7.43;;;16.40;99.90;;;;;;5073508;28;20034;-69
2021/09/26 04:02:13;;;;;;;11.40;7.80;;;16.50;99.90;;;;;;5071722;28;20052;-68
2021/09/26 04:04:39;;;;;;;14.43;7.15;;;16.50;99.90;;;;;;5073294;28;20426;-68
2021/09/26 04:07:05;;;;;;;12.13;7.93;;;16.60;99.90;;;;;;5072885;28;20120;-68
2021/09/26 04:09:30;;;;;;;10.80;7.07;;;16.70;99.90;;;;;;5073226;28;20104;-68
2021/09/26 04:11:57;;;;;;;12.40;7.85;;;16.80;99.90;;;;;;5073110;28;20108;-68
2021/09/26 04:14:22;;;;;;;12.73;7.60;;;16.50;99.90;;;;;;5072793;28;20393;-68
2021/09/26 04:16:49;;;;;;;13.65;8.30;;;16.40;99.90;;;;;;5072774;28;20044;-68
2021/09/26 04:19:19;;;;;;;10.63;8.20;;;16.20;99.90;;;;;;5073002;28;20032;-68
2021/09/26 04:21:46;;;;;;;13.07;8.00;;;16.20;99.90;;;;;;5072783;28;20435;-68
2021/09/26 04:24:13;;;;;;;10.98;7.95;;;16.20;99.90;;;;;;5072963;28;20035;-68
2021/09/26 04:26:39;;;;;;;13.20;8.52;;;16.20;99.90;;;;;;5071421;28;20060;-68
2021/09/26 04:29:06;;;;;;;11.50;7.40;;;16.20;99.90;;;;;;5071801;28;20544;-68
2021/09/26 04:31:32;;;;;;;11.27;7.80;;;16.20;99.90;;;;;;5087538;28;20040;-68
2021/09/26 04:33:57;;;;;;;14.13;8.18;;;16.20;99.90;;;;;;5072679;28;20371;-68
2021/09/26 04:36:23;;;;;;;12.23;7.75;;;16.20;99.90;;;;;;5071363;28;20032;-68
2021/09/26 04:38:49;;;;;;;13.75;8.25;;;16.20;99.90;;;;;;5072826;28;20489;-68
2021/09/26 04:41:14;;;;;;;12.02;7.63;;;16.20;99.90;;;;;;5072463;28;20189;-68
2021/09/26 04:43:40;;;;;;;13.07;7.85;;;16.20;99.90;;;;;;5073200;28;20039;-68
2021/09/26 04:46:06;;;;;;;11.15;7.90;;;16.20;99.90;;;;;;5074408;28;20036;-68
2021/09/26 04:48:32;;;;;;;12.23;7.63;;;16.10;99.90;;;;;;5072196;28;20064;-68
2021/09/26 04:50:58;;;;;;;12.65;8.50;;;16.10;99.90;;;;;;5072392;28;20513;-68
2021/09/26 04:53:23;;;;;;;16.15;7.70;;;16.00;99.90;;;;;;5072151;28;20083;-68
2021/09/26 04:55:50;;;;;;;12.25;8.48;;;16.00;99.90;;;;;;5071409;28;20068;-69
2021/09/26 04:58:16;;;;;;;11.73;7.60;;;15.90;99.90;;;;;;5072471;28;20028;-67
2021/09/26 05:00:42;;;;;;;13.27;8.63;;;15.90;99.90;;;;;;5072430;28;20102;-67
2021/09/26 05:03:08;;;;;;;16.08;8.45;;;15.90;99.90;;;;;;5072129;28;20036;-67
2021/09/26 05:05:34;;;;;;;14.52;8.48;;;16.00;99.90;;;;;;5072167;28;20032;-67
2021/09/26 05:08:00;;;;;;;10.32;7.35;;;16.10;99.90;;;;;;5089068;28;20043;-68
2021/09/26 05:10:26;;;;;;;11.07;8.07;;;16.30;99.90;;;;;;5091342;28;20032;-67
2021/09/26 05:12:51;;;;;;;13.32;8.43;;;16.20;99.90;;;;;;5092285;28;20020;-67
2021/09/26 05:15:17;;;;;;;9.85;7.15;;;16.20;99.90;;;;;;5091957;28;20119;-67
2021/09/26 05:17:43;;;;;;;10.75;7.75;;;16.20;99.90;;;;;;5092286;28;20032;-67
2021/09/26 05:20:10;;;;;;;11.27;7.15;;;16.20;99.90;;;;;;5091270;28;20483;-68
2021/09/26 05:22:36;;;;;;;12.32;7.82;;;16.30;99.90;;;;;;5091054;28;20036;-68
2021/09/26 05:25:03;;;;;;;14.45;7.00;;;16.40;99.90;;;;;;5092266;28;20427;-68
2021/09/26 05:27:29;;;;;;;14.35;7.53;;;16.40;99.90;;;;;;5090690;28;20028;-67
2021/09/26 05:29:55;;;;;;;14.20;7.75;;;16.50;99.90;;;;;;5092542;28;20032;-67
2021/09/26 05:32:20;;;;;;;11.23;7.50;;;16.50;99.90;;;;;;5092230;28;20036;-67
2021/09/26 05:34:47;;;;;;;10.90;7.75;;;16.70;99.90;;;;;;5092127;28;20455;-68
2021/09/26 05:37:13;;;;;;;10.75;6.88;;;16.70;99.90;;;;;;5091801;28;20123;-68
2021/09/26 05:39:39;;;;;;;10.75;7.50;;;16.60;99.90;;;;;;5092232;28;20173;-68
2021/09/26 05:42:07;;;;;;;11.20;7.75;;;16.60;99.90;;;;;;5091915;28;20024;-68
2021/09/26 05:44:35;;;;;;;13.32;8.65;;;16.60;99.90;;;;;;5094843;28;20107;-68
2021/09/26 05:47:02;;;;;;;15.95;11.18;;;16.60;99.90;;;;;;5094536;28;20090;-68
2021/09/26 05:49:28;;;;;;;16.73;12.40;;;16.80;99.90;;;;;;5095583;28;20320;-68
2021/09/26 05:51:53;;;;;;;16.88;11.15;;;16.90;99.90;;;;;;5095996;28;20036;-67
2021/09/26 05:54:20;;;;;;;11.80;8.13;;;16.90;99.90;;;;;;5095624;28;20036;-68
2021/09/26 05:56:46;;;;;;;13.98;10.30;;;16.90;99.90;;;;;;5094663;28;20032;-57
2021/09/26 05:59:14;;;;;;;18.63;11.23;;;16.70;99.90;;;;;;5086859;28;20077;-57
2021/09/26 06:01:40;;;;;;;15.70;10.10;;;16.70;99.90;;;;;;5084296;28;20028;-57
2021/09/26 06:04:05;;;;;;;12.93;8.52;;;16.50;99.90;;;;;;5085180;28;20099;-55
2021/09/26 06:06:31;;;;;;;14.57;10.18;;;16.40;99.90;;;;;;5082934;28;20489;-54
2021/09/26 06:08:57;;;;;;;16.10;11.10;;;16.50;99.90;;;;;;5086022;28;20097;-57
2021/09/26 06:11:23;;;;;;;19.02;10.38;;;16.60;99.90;;;;;;5084376;28;20080;-57
2021/09/26 06:13:48;;;;;;;17.13;10.60;;;16.50;99.90;;;;;;5084640;28;20039;-58
2021/09/26 06:16:14;;;;;;;16.02;10.70;;;16.60;99.90;;;;;;5085665;28;20051;-57
2021/09/26 06:18:40;;;;;;;15.85;10.60;;;16.50;99.90;;;;;;5093093;28;20049;-56
2021/09/26 06:21:05;;;;;;;17.15;10.80;;;16.60;99.90;;;;;;5091956;28;20476;-57
2021/09/26 06:23:31;;;;;;;17.00;12.02;;;16.60;99.90;;;;;;5084158;28;20049;-58
2021/09/26 06:25:58;;;;;;;17.98;12.00;;;16.60;99.90;;;;;;5085936;28;20465;-53
2021/09/26 06:28:24;;;;;;;15.82;9.77;;;16.70;99.90;;;;;;5084215;28;20036;-57
2021/09/26 06:30:50;;;;;;;22.05;14.70;;;16.80;99.90;;;;;;5093860;28;20028;-58
2021/09/26 06:33:16;;;;;;;16.08;11.52;;;16.90;99.90;;;;;;5083253;28;20032;-56
2021/09/26 06:35:41;;;;;;;15.07;10.73;;;17.00;99.90;;;;;;5083020;28;20480;-57
2021/09/26 06:38:07;;;;;;;33.88;21.80;;;16.90;99.90;;;;;;5077347;28;20567;-55
2021/09/26 06:40:33;;;;;;;19.23;11.90;;;17.00;99.90;;;;;;5077229;28;20032;-58
2021/09/26 06:42:59;;;;;;;13.50;9.77;;;17.00;99.90;;;;;;5086397;28;20034;-58
2021/09/26 06:45:25;;;;;;;13.25;9.63;;;17.00;99.90;;;;;;5082177;28;20032;-58
2021/09/26 06:47:51;;;;;;;17.60;10.45;;;17.10;99.90;;;;;;5077371;28;20031;-58
2021/09/26 06:50:16;;;;;;;15.95;9.55;;;17.10;99.90;;;;;;5080249;28;20021;-58
2021/09/26 06:52:42;;;;;;;16.17;10.57;;;17.20;99.90;;;;;;5090832;28;20052;-58
2021/09/26 06:55:09;;;;;;;20.17;10.38;;;17.20;99.90;;;;;;5081429;28;20453;-58
2021/09/26 06:57:35;;;;;;;18.92;10.88;;;17.20;99.90;;;;;;5093524;28;20040;-57
2021/09/26 07:00:04;;;;;;;17.25;12.10;;;17.20;99.90;;;;;;5091602;28;20047;-55
2021/09/26 07:02:30;;;;;;;19.05;12.63;;;17.30;99.90;;;;;;5085867;28;20072;-55
2021/09/26 07:04:56;;;;;;;18.27;12.40;;;17.30;99.90;;;;;;5080721;28;20028;-56
2021/09/26 07:07:23;;;;;;;19.75;12.27;;;17.30;99.90;;;;;;5074895;28;20035;-55
2021/09/26 07:09:50;;;;;;;20.63;12.68;;;17.40;99.90;;;;;;5088158;28;20032;-56
2021/09/26 07:12:18;;;;;;;17.70;12.85;;;17.50;99.90;;;;;;5093375;28;20118;-57
2021/09/26 07:14:44;;;;;;;20.70;12.27;;;17.50;99.90;;;;;;5094328;28;20150;-56
2021/09/26 07:17:10;;;;;;;18.08;12.82;;;17.60;99.90;;;;;;5094059;28;20040;-55
2021/09/26 07:19:36;;;;;;;16.58;11.80;;;17.70;99.90;;;;;;5094399;28;20024;-57
2021/09/26 07:22:04;;;;;;;18.13;11.55;;;17.80;99.90;;;;;;5094139;28;20032;-56
2021/09/26 07:24:30;;;;;;;16.33;10.38;;;17.90;99.90;;;;;;5092946;28;20029;-57
2021/09/26 07:26:55;;;;;;;12.15;8.85;;;18.20;99.90;;;;;;5094213;28;20105;-58
2021/09/26 07:29:21;;;;;;;14.13;8.50;;;18.50;99.90;;;;;;5093724;28;20469;-53
2021/09/26 07:31:47;;;;;;;14.55;8.75;;;18.60;99.90;;;;;;5094044;28;20028;-54
2021/09/26 07:34:13;;;;;;;13.93;10.05;;;18.90;99.90;;;;;;5094083;28;20040;-56
2021/09/26 07:36:39;;;;;;;15.02;9.35;;;19.10;99.90;;;;;;5092507;28;20032;-55
2021/09/26 07:39:05;;;;;;;15.18;10.77;;;19.20;99.90;;;;;;5094014;28;20361;-56
2021/09/26 07:41:32;;;;;;;30.13;15.35;;;19.10;99.90;;;;;;5082242;28;20087;-56
2021/09/26 07:43:58;;;;;;;19.67;11.23;;;19.10;99.90;;;;;;5073771;28;20081;-57
2021/09/26 07:46:24;;;;;;;17.50;10.57;;;19.10;99.90;;;;;;5073433;28;20477;-56
2021/09/26 07:48:50;;;;;;;15.65;11.57;;;19.30;99.90;;;;;;5073696;28;20432;-58
2021/09/26 07:51:17;;;;;;;17.38;11.43;;;19.60;99.90;;;;;;5073608;28;20085;-57
2021/09/26 07:53:42;;;;;;;16.52;10.80;;;19.70;99.90;;;;;;5073119;28;20450;-58
2021/09/26 07:56:08;;;;;;;17.13;10.88;;;19.80;99.90;;;;;;5073547;28;20035;-58
2021/09/26 07:58:34;;;;;;;14.80;10.30;;;19.70;99.90;;;;;;5073217;28;20155;-57
2021/09/26 08:01:01;;;;;;;14.90;10.15;;;19.80;99.90;;;;;;5073124;28;20060;-58
2021/09/26 08:03:28;;;;;;;16.45;10.50;;;19.80;99.90;;;;;;5071750;28;20033;-57
2021/09/26 08:05:55;;;;;;;14.68;10.30;;;19.80;99.90;;;;;;5072266;28;20135;-58
2021/09/26 08:08:22;;;;;;;15.45;9.40;;;19.90;99.90;;;;;;5072989;28;20060;-58
2021/09/26 08:10:48;;;;;;;16.25;10.25;;;19.80;99.90;;;;;;5073070;28;20033;-57
2021/09/26 08:13:15;;;;;;;12.65;9.02;;;19.70;99.90;;;;;;5073019;28;20037;-59
2021/09/26 08:15:42;;;;;;;14.52;9.88;;;19.80;99.90;;;;;;5072544;28;20549;-59
2021/09/26 08:18:08;;;;;;;16.45;9.88;;;19.90;99.90;;;;;;5073033;28;20021;-58
2021/09/26 08:20:34;;;;;;;13.48;8.80;;;19.90;99.90;;;;;;5072606;28;20239;-58
2021/09/26 08:23:00;;;;;;;14.30;8.55;;;19.90;99.90;;;;;;5072874;28;20098;-58
2021/09/26 08:25:26;;;;;;;18.15;12.43;;;19.80;99.90;;;;;;5072576;28;20040;-58
2021/09/26 08:27:52;;;;;;;16.85;10.75;;;19.90;99.90;;;;;;5072796;28;20028;-66
2021/09/26 08:30:19;;;;;;;14.02;8.48;;;19.70;99.90;;;;;;5071537;28;20020;-66
2021/09/26 08:32:47;;;;;;;13.15;7.72;;;19.90;99.90;;;;;;5071186;28;20028;-67
2021/09/26 08:35:13;;;;;;;13.00;9.10;;;19.80;99.90;;;;;;5072666;28;20445;-67
2021/09/26 08:37:40;;;;;;;11.80;8.38;;;19.90;99.90;;;;;;5071146;28;20039;-66
2021/09/26 08:40:07;;;;;;;11.63;8.30;;;19.90;99.90;;;;;;5072624;28;20456;-66
2021/09/26 08:42:34;;;;;;;19.23;13.25;;;20.20;99.90;;;;;;5090487;28;20424;-67
2021/09/26 08:45:05;;;;;;;12.02;8.25;;;20.20;99.90;;;;;;5092560;28;20082;-66
2021/09/26 08:47:36;;;;;;;12.85;9.02;;;20.10;99.90;;;;;;5075357;28;20039;-66
2021/09/26 08:50:03;;;;;;;11.80;8.15;;;20.20;99.90;;;;;;5088103;28;20029;-65
2021/09/26 08:52:30;;;;;;;14.60;8.57;;;20.30;99.90;;;;;;5071172;28;20077;-68
2021/09/26 08:54:55;;;;;;;11.98;7.82;;;20.30;99.90;;;;;;5071174;28;20054;-67
2021/09/26 08:57:22;;;;;;;11.07;7.63;;;20.30;99.90;;;;;;5072304;28;20032;-67
2021/09/26 08:59:48;;;;;;;16.13;9.00;;;20.30;99.90;;;;;;5071947;28;20259;-66
2021/09/26 09:02:14;;;;;;;11.32;8.50;;;20.30;99.90;;;;;;5074788;28;20028;-66
2021/09/26 09:04:42;;;;;;;11.52;8.15;;;20.30;99.90;;;;;;5072148;28;20029;-67
2021/09/26 09:07:12;;;;;;;14.60;8.38;;;20.40;99.90;;;;;;5071882;28;20105;-66
2021/09/26 09:09:59;;;;;;;11.67;7.87;;;20.40;99.90;;;;;;5072262;28;20490;-67
2021/09/26 09:12:36;;;;;;;14.45;7.68;;;20.40;99.90;;;;;;5072422;28;20040;-69
2021/09/26 09:15:06;;;;;;;13.75;7.63;;;20.40;99.90;;;;;;5072024;28;20025;-66
2021/09/26 09:17:43;;;;;;;10.00;6.75;;;20.60;99.90;;;;;;5071544;28;20045;-65
2021/09/26 09:20:25;;;;;;;10.57;6.28;;;20.60;99.90;;;;;;5071924;28;20076;-66
2021/09/26 09:22:56;;;;;;;9.38;6.78;;;20.60;99.90;;;;;;5071945;28;20488;-67
2021/09/26 09:25:47;;;;;;;;;;;20.80;99.90;;;;;;5072660;28;20060;-67
2021/09/26 09:28:18;;;;;;;9.65;6.00;;;21.00;99.90;;;;;;5072089;28;19920;-67
2021/09/26 09:30:54;;;;;;;9.65;6.35;;;21.20;99.90;;;;;;5071833;28;20413;-65
2021/09/26 09:33:23;;;;;;;9.32;6.10;;;21.10;99.90;;;;;;5071992;28;20033;-65
2021/09/26 09:35:53;;;;;;;9.40;5.88;;;21.00;99.90;;;;;;5070150;28;20496;-65
2021/09/26 09:38:36;;;;;;;15.30;5.45;;;21.10;99.90;;;;;;5069675;28;20073;-64
2021/09/26 09:41:02;;;;;;;10.63;5.30;;;21.10;99.90;;;;;;5071618;28;20066;-65
2021/09/26 09:43:28;;;;;;;12.60;6.18;;;21.00;99.90;;;;;;5071550;28;20410;-65
2021/09/26 09:46:01;;;;;;;12.25;6.28;;;20.90;99.90;;;;;;5070140;28;20104;-65
2021/09/26 09:48:31;;;;;;;10.20;6.78;;;20.80;99.90;;;;;;5070382;28;20032;-67
2021/09/26 09:51:04;;;;;;;16.10;6.80;;;20.80;99.90;;;;;;5070466;28;20032;-66
2021/09/26 09:53:45;;;;;;;11.00;6.40;;;20.80;99.90;;;;;;5071151;28;20045;-65
2021/09/26 09:56:18;;;;;;;7.75;5.32;;;20.80;99.90;;;;;;5071658;28;20028;-72
2021/09/26 09:58:47;;;;;;;12.27;5.65;;;20.60;99.90;;;;;;5070198;28;20119;-71
2021/09/26 10:01:37;;;;;;;10.70;6.45;;;20.40;99.90;;;;;;5071510;28;20567;-71
2021/09/26 10:04:06;;;;;;;8.93;5.75;;;20.30;99.90;;;;;;5070293;28;20024;-70
2021/09/26 10:06:40;;;;;;;12.98;6.05;;;20.30;99.90;;;;;;5070096;28;20174;-70
2021/09/26 10:09:20;;;;;;;10.00;5.78;;;20.20;99.90;;;;;;5071817;28;20530;-71
2021/09/26 10:11:53;;;;;;;9.13;6.18;;;20.30;99.90;;;;;;5071176;28;20029;-70
2021/09/26 10:14:21;;;;;;;12.90;5.85;;;20.20;99.90;;;;;;5071540;28;20025;-70
2021/09/26 10:16:47;;;;;;;11.20;6.45;;;20.20;99.90;;;;;;5069854;28;20049;-71
2021/09/26 10:19:14;;;;;;;11.40;6.55;;;20.20;99.90;;;;;;5070418;28;20039;-71
2021/09/26 10:21:40;;;;;;;11.60;6.32;;;20.20;99.90;;;;;;5070012;28;20028;-70
2021/09/26 10:24:08;;;;;;;9.75;6.75;;;20.10;99.90;;;;;;5069910;28;20025;-71
2021/09/26 10:26:39;;;;;;;9.25;5.47;;;20.20;99.90;;;;;;5071323;28;20157;-70
2021/09/26 10:29:08;;;;;;;14.57;6.43;;;20.20;99.90;;;;;;5073011;28;20036;-71
2021/09/26 10:31:35;;;;;;;9.70;5.82;;;20.30;99.90;;;;;;5079924;28;20033;-71
2021/09/26 10:34:03;;;;;;;13.43;5.95;;;20.30;99.90;;;;;;5093775;28;20051;-70
2021/09/26 10:36:32;;;;;;;11.38;5.47;;;20.30;99.90;;;;;;5093742;28;20032;-70
2021/09/26 10:39:00;;;;;;;11.30;6.07;;;20.40;99.90;;;;;;5093578;28;20117;-71
2021/09/26 10:41:26;;;;;;;9.63;5.70;;;20.50;99.90;;;;;;5094051;28;20029;-71
2021/09/26 10:43:52;;;;;;;12.80;6.55;;;20.60;99.90;;;;;;5093523;28;20553;-71
2021/09/26 10:46:26;;;;;;;10.40;6.18;;;20.60;99.90;;;;;;5092927;28;20047;-70
2021/09/26 10:49:11;;;;;;;14.60;7.07;;;20.60;99.90;;;;;;5093954;28;20032;-70
2021/09/26 10:51:52;;;;;;;10.73;6.15;;;20.40;99.90;;;;;;5076871;28;20028;-70
2021/09/26 10:54:21;;;;;;;;;;;20.50;99.90;;;;;;5095386;28;20032;-70
2021/09/26 10:56:47;;;;;;;13.20;6.82;;;20.60;99.90;;;;;;5094592;28;20392;-70
2021/09/26 10:59:13;;;;;;;13.73;6.85;;;20.60;99.90;;;;;;5093206;28;20024;-70
2021/09/26 11:01:39;;;;;;;13.55;6.55;;;20.70;99.90;;;;;;5093048;28;20032;-70
2021/09/26 11:04:13;;;;;;;12.98;6.18;;;20.90;99.90;;;;;;5093331;28;20509;-71
2021/09/26 11:06:39;;;;;;;10.45;5.95;;;21.10;99.90;;;;;;5093128;28;20389;-70
2021/09/26 11:09:09;;;;;;;13.70;6.60;;;21.10;99.90;;;;;;5094441;28;20074;-70
2021/09/26 11:11:44;;;;;;;;;;;21.10;99.90;;;;;;5093856;28;20497;-69
2021/09/26 11:14:10;;;;;;;10.07;5.93;;;21.30;99.90;;;;;;5109315;28;20015;-71
2021/09/26 11:16:56;;;;;;;12.43;6.63;;;21.10;99.90;;;;;;5094087;28;20496;-71
2021/09/26 11:19:24;;;;;;;11.30;6.40;;;21.10;99.90;;;;;;5094185;28;20419;-71
2021/09/26 11:21:54;;;;;;;10.13;6.00;;;21.00;99.90;;;;;;5094036;28;20039;-70
2021/09/26 11:24:22;;;;;;;10.52;6.00;;;21.20;99.90;;;;;;5094100;28;20086;-70
2021/09/26 11:26:57;;;;;;;16.88;6.90;;;21.50;99.90;;;;;;5092579;28;20498;-70
2021/09/26 11:29:31;;;;;;;13.05;6.53;;;21.80;99.90;;;;;;5093970;28;20044;-70
2021/09/26 11:31:58;;;;;;;14.88;6.55;;;22.10;99.90;;;;;;5079086;28;20031;-70
2021/09/26 11:34:53;;;;;;;11.25;6.25;;;22.30;99.90;;;;;;5084741;28;20032;-70
2021/09/26 11:37:45;;;;;;;9.32;5.70;;;22.50;99.90;;;;;;5078681;28;20036;-72
2021/09/26 11:40:14;;;;;;;8.60;5.20;;;22.50;99.90;;;;;;5081887;28;20070;-70
2021/09/26 11:42:52;;;;;;;9.40;6.15;;;22.60;99.90;;;;;;5090516;28;20028;-70
2021/09/26 11:45:28;;;;;;;10.43;5.78;;;22.20;99.90;;;;;;5090578;28;20028;-70
2021/09/26 11:48:05;;;;;;;7.13;4.82;;;22.30;99.90;;;;;;5083273;28;20389;-69
2021/09/26 11:50:34;;;;;;;10.93;5.40;;;22.70;99.90;;;;;;5091227;28;20063;-70
2021/09/26 11:53:00;;;;;;;8.60;5.65;;;22.20;99.90;;;;;;5073269;28;20034;-69
2021/09/26 11:55:32;;;;;;;10.50;5.30;;;22.20;99.90;;;;;;5073422;28;20024;-70
2021/09/26 11:58:00;;;;;;;9.73;5.22;;;22.50;99.90;;;;;;5072238;28;20040;-70
2021/09/26 12:00:34;;;;;;;12.35;5.88;;;22.70;99.90;;;;;;5073002;28;20478;-70
2021/09/26 12:03:13;;;;;;;8.70;5.38;;;22.10;99.90;;;;;;5056102;28;20041;-69
2021/09/26 12:05:41;;;;;;;10.65;5.80;;;21.90;99.90;;;;;;5073034;28;20504;-69
2021/09/26 12:08:09;;;;;;;15.73;6.00;;;21.90;99.90;;;;;;5071790;28;20036;-69
2021/09/26 12:10:35;;;;;;;8.95;5.07;;;22.00;99.90;;;;;;5082104;28;20024;-69
2021/09/26 12:13:22;;;;;;;9.68;5.38;;;22.00;99.90;;;;;;5093041;28;20043;-69
2021/09/26 12:15:49;;;;;;;9.23;5.60;;;22.10;99.90;;;;;;5091632;28;20040;-70
2021/09/26 12:18:23;;;;;;;11.00;6.63;;;22.30;99.90;;;;;;5092914;28;20040;-70
2021/09/26 12:21:07;;;;;;;11.25;4.80;;;22.30;99.90;;;;;;5093086;28;20032;-70
2021/09/26 12:24:08;;;;;;;12.18;7.15;;;22.30;99.90;;;;;;5092803;28;20389;-71
2021/09/26 12:26:41;;;;;;;12.02;5.63;;;22.60;99.90;;;;;;5070401;28;20048;-71
2021/09/26 12:29:21;;;;;;;8.25;5.00;;;22.90;99.90;;;;;;5091748;28;20439;-60
2021/09/26 12:31:54;;;;;;;10.00;5.27;;;23.20;99.90;;;;;;5091704;28;20032;-61
2021/09/26 12:34:34;;;;;;;10.55;6.07;;;23.60;99.90;;;;;;5085475;28;20028;-60
2021/09/26 12:37:02;;;;;;;15.02;5.78;;;24.00;99.90;;;;;;5080896;28;20101;-60
2021/09/26 12:39:39;;;;;;;12.82;5.57;;;23.90;99.90;;;;;;5087665;28;20064;-60
2021/09/26 12:42:06;;;;;;;9.55;6.00;;;24.50;99.90;;;;;;5087294;28;20493;-60
2021/09/26 12:44:38;;;;;;;10.75;5.32;;;24.40;99.90;;;;;;5079805;28;20032;-59
2021/09/26 12:47:16;;;;;;;9.23;5.30;;;24.30;99.90;;;;;;5089231;28;20114;-70
2021/09/26 12:49:45;;;;;;;7.47;4.93;;;24.50;99.90;;;;;;5091313;28;20028;-70